Forside
METAR-TAF:

METAR-TAF

Lufthavne :

Clarion Municipal Airport

Clarion, Iowa, USA

Breddekreds: 42-45N, længdekreds: 093-46W, højde: 354 m

Aktuelle vejr

Denne rapport blev lavet for 11 minutter siden, kl. 03:55 UTC
Vind 18 kt fra sydøst
Temperatur -3°C
Fugtighed 100%
Tryk 1012 hPa
Sigt: 2.8 km
Overskyet i en højde af 600 ft
dis

METAR: KCAV 180355Z AUTO 14018KT 1 3/4SM BR OVC006 M03/M03 A2987 RMK A01

Tid: 22:06 (04:06 UTC)


TAF: fraværende

Vejrobservationer og prognoser fra mere end 4000 lufthavne (METAR og TAF).

De gule og røde prikker repræsenterer de meteorologiske stationer.

Flyt musen over at se navnet på stationen.

Så klik over at se vejr observationer og prognoser.

At skifte det kort: Klik på de grønne knapper med et sort kors for at zoome ind; på den grønne knap med en bindestreg for at zoome ud; eller på de grønne pile for tilstødende kort.


METAR-TAF: